Time;durP1;ratioP1;P1;durP2;ratioP2;P2;SDS_P1;SDS_P2;PMS_P1;PMS_P2;Temp;Humidity;BMP_temperature;BMP_pressure;BME280_temperature;BME280_humidity;BME280_pressure;Samples;Min_cycle;Max_cycle;Signal;HPM_P1;HPM_P2
2022/06/27 00:00:27;;;;;;;5.40;4.62;;;;;;;14.43;87.50;95008.58;1720389;82;21720;-53
2022/06/27 00:02:57;;;;;;;6.45;5.47;;;;;;;14.47;87.66;95000.87;1720039;83;20942;-54
2022/06/27 00:05:25;;;;;;;5.75;5.20;;;;;;;14.57;87.59;95008.53;1720113;82;21061;-54
2022/06/27 00:07:53;;;;;;;7.60;5.03;;;;;;;14.63;87.47;95008.08;1720402;83;20967;-54
2022/06/27 00:10:20;;;;;;;7.85;4.87;;;;;;;14.65;87.03;95007.73;1720403;83;21088;-54
2022/06/27 00:12:49;;;;;;;8.90;4.72;;;;;;;14.69;86.87;95009.75;1720119;83;21888;-54
2022/06/27 00:15:17;;;;;;;6.28;4.55;;;;;;;14.70;86.64;94998.81;1720383;83;21053;-54
2022/06/27 00:17:45;;;;;;;5.90;5.30;;;;;;;14.70;86.64;94999.42;1720382;83;20997;-54
2022/06/27 00:20:13;;;;;;;5.58;4.95;;;;;;;14.61;86.72;94996.06;1720191;83;21089;-54
2022/06/27 00:22:42;;;;;;;11.05;5.30;;;;;;;14.52;87.14;94998.09;1720221;82;20958;-54
2022/06/27 00:25:10;;;;;;;8.03;5.00;;;;;;;14.47;87.38;95005.02;1685421;84;21310;-53
2022/06/27 00:27:40;;;;;;;5.33;4.83;;;;;;;14.45;87.50;95002.59;1687827;83;20975;-54
2022/06/27 00:30:10;;;;;;;5.62;4.47;;;;;;;14.42;87.65;94999.38;1687877;83;21047;-54
2022/06/27 00:32:39;;;;;;;4.95;4.25;;;;;;;14.39;87.53;95000.28;1687818;85;20983;-53
2022/06/27 00:35:08;;;;;;;6.00;5.40;;;;;;;14.36;87.48;95003.23;1687742;85;21481;-54
2022/06/27 00:37:37;;;;;;;7.20;5.20;;;;;;;14.25;87.40;95001.55;1688048;85;21126;-54
2022/06/27 00:40:06;;;;;;;4.75;4.35;;;;;;;14.18;87.73;95003.27;1687801;83;21514;-53
2022/06/27 00:42:35;;;;;;;5.90;4.22;;;;;;;14.17;87.73;94998.96;1676359;85;21554;-54
2022/06/27 00:45:04;;;;;;;5.97;4.83;;;;;;;14.16;87.66;95002.96;1687787;83;21577;-53
2022/06/27 00:47:34;;;;;;;5.42;4.80;;;;;;;14.12;87.68;95009.22;1688093;85;21166;-52
2022/06/27 00:50:02;;;;;;;6.22;5.47;;;;;;;14.08;87.78;95004.46;1676423;85;21353;-53
2022/06/27 00:52:30;;;;;;;6.67;4.60;;;;;;;14.07;87.82;94996.02;1676098;85;20991;-54
2022/06/27 00:54:59;;;;;;;6.92;4.70;;;;;;;14.07;87.49;95002.93;1687827;85;20959;-55
2022/06/27 00:57:28;;;;;;;5.67;5.10;;;;;;;14.07;87.48;95005.70;1688121;85;21486;-53
2022/06/27 00:59:56;;;;;;;5.90;5.40;;;;;;;14.08;87.42;95010.00;1687772;83;21015;-53
2022/06/27 01:02:23;;;;;;;5.53;4.97;;;;;;;14.04;87.15;95009.39;1675977;83;21266;-54
2022/06/27 01:04:52;;;;;;;6.35;5.62;;;;;;;13.99;87.29;95007.25;1687743;83;20999;-54
2022/06/27 01:07:20;;;;;;;7.67;5.03;;;;;;;13.99;87.79;95010.02;1687758;83;20967;-53
2022/06/27 01:09:48;;;;;;;5.42;4.92;;;;;;;13.97;87.90;95014.62;1687796;83;20998;-54
2022/06/27 01:12:16;;;;;;;5.87;5.05;;;;;;;13.93;87.91;95013.23;1676160;85;21010;-54
2022/06/27 01:14:44;;;;;;;6.90;5.80;;;;;;;13.82;88.12;95018.48;1687880;83;21097;-54
2022/06/27 01:17:12;;;;;;;6.53;4.50;;;;;;;13.77;88.71;95012.16;1688223;84;20959;-54
2022/06/27 01:19:42;;;;;;;5.33;4.60;;;;;;;13.77;88.71;95014.92;1699452;83;20955;-53
2022/06/27 01:22:10;;;;;;;5.22;4.83;;;;;;;13.74;88.66;95013.86;1699369;83;20975;-53
2022/06/27 01:24:39;;;;;;;5.12;4.62;;;;;;;13.77;88.93;95019.06;1693529;83;21065;-53
2022/06/27 01:27:08;;;;;;;6.72;5.20;;;;;;;13.79;88.63;95015.25;1720219;83;21245;-54
2022/06/27 01:29:35;;;;;;;4.70;4.30;;;;;;;13.79;88.46;95018.02;1720145;83;21120;-54
2022/06/27 01:32:04;;;;;;;7.50;5.00;;;;;;;13.77;88.35;95014.92;1720211;82;21081;-54
2022/06/27 01:34:33;;;;;;;5.83;5.10;;;;;;;13.77;88.39;95019.85;1720450;83;20934;-52
2022/06/27 01:37:02;;;;;;;9.53;5.62;;;;;;;13.77;88.27;95024.00;1720323;83;20950;-54
2022/06/27 01:39:31;;;;;;;5.92;5.42;;;;;;;13.76;88.29;95022.46;1720467;83;21185;-54
2022/06/27 01:42:02;;;;;;;6.15;5.60;;;;;;;13.75;88.23;95026.45;1720096;83;20982;-53
2022/06/27 01:44:32;;;;;;;5.58;4.60;;;;;;;13.74;88.36;95022.76;1720574;83;21422;-54
2022/06/27 01:47:10;;;;;;;5.40;4.90;;;;;;;13.74;88.23;95025.52;1720307;82;21417;-54
2022/06/27 01:49:41;;;;;;;6.90;4.90;;;;;;;13.72;88.16;95023.84;1718622;83;20966;-54
2022/06/27 01:52:09;;;;;;;7.17;5.22;;;;;;;13.68;88.41;95028.16;1710008;82;21254;-54
2022/06/27 01:54:37;;;;;;;5.58;5.08;;;;;;;13.64;88.50;95022.62;1670433;83;21108;-54
2022/06/27 01:57:06;;;;;;;10.50;5.42;;;;;;;13.59;88.24;95023.23;1721899;83;21013;-54
2022/06/27 01:59:36;;;;;;;10.45;5.53;;;;;;;13.51;87.83;95026.13;1720544;83;21541;-53
2022/06/27 02:02:05;;;;;;;7.20;5.40;;;;;;;13.41;87.89;95028.73;1720073;83;21046;-53
2022/06/27 02:04:35;;;;;;;8.65;5.80;;;;;;;13.34;87.96;95031.78;1720086;83;21296;-54
2022/06/27 02:07:04;;;;;;;8.20;5.80;;;;;;;13.24;88.35;95033.00;1720115;83;21069;-54
2022/06/27 02:09:33;;;;;;;7.17;5.58;;;;;;;13.18;88.75;95033.42;1720204;82;20963;-54
2022/06/27 02:12:18;;;;;;;9.18;5.95;;;;;;;13.16;89.18;95024.83;1720273;83;21422;-54
2022/06/27 02:14:33;;;;;;;7.12;6.22;;;;;;;13.16;89.34;95030.34;1719596;82;21045;-53
2022/06/27 02:17:02;;;;;;;13.32;6.75;;;;;;;13.14;89.33;95033.59;1720385;83;21173;-54
2022/06/27 02:19:31;;;;;;;9.30;7.03;;;;;;;13.14;89.70;95036.95;1698049;83;22453;-54
2022/06/27 02:21:59;;;;;;;9.45;7.05;;;;;;;13.15;89.95;95042.62;1720362;83;20990;-54
2022/06/27 02:24:27;;;;;;;9.75;6.62;;;;;;;13.09;89.55;95038.94;1720162;83;21010;-54
2022/06/27 02:26:55;;;;;;;12.45;6.80;;;;;;;13.04;89.94;95040.30;1685874;83;21023;-53
2022/06/27 02:29:23;;;;;;;7.60;6.37;;;;;;;13.04;89.92;95045.06;1685949;85;21271;-53
2022/06/27 02:31:51;;;;;;;11.48;6.83;;;;;;;13.07;90.13;95046.91;1686091;84;20952;-53
2022/06/27 02:34:19;;;;;;;10.78;6.72;;;;;;;13.12;90.18;95044.92;1686053;85;21055;-55
2022/06/27 02:36:48;;;;;;;8.95;6.33;;;;;;;13.14;89.92;95043.25;1685751;84;21518;-53
2022/06/27 02:39:19;;;;;;;8.28;5.92;;;;;;;13.13;89.75;95046.46;1674012;85;21167;-53
2022/06/27 02:41:48;;;;;;;9.20;6.17;;;;;;;13.16;89.93;95049.69;1685989;84;21083;-54
2022/06/27 02:44:15;;;;;;;12.47;6.85;;;;;;;13.18;89.73;95052.16;1673842;83;21496;-54
2022/06/27 02:46:44;;;;;;;12.45;7.35;;;;;;;13.20;89.66;95055.83;1709097;83;21022;-53
2022/06/27 02:49:12;;;;;;;8.10;5.65;;;;;;;13.18;89.08;95061.05;1685862;85;20951;-53
2022/06/27 02:51:55;;;;;;;6.25;5.35;;;;;;;13.13;89.15;95065.20;1697045;84;20999;-53
2022/06/27 02:54:41;;;;;;;7.25;6.08;;;;;;;13.14;89.06;95059.05;1686033;85;21265;-53
2022/06/27 02:57:48;;;;;;;6.00;5.50;;;;;;;13.12;88.76;95060.12;1727632;82;20963;-54
2022/06/27 03:00:17;;;;;;;15.88;5.35;;;;;;;13.12;88.87;95060.12;1686011;85;21502;-55
2022/06/27 03:02:45;;;;;;;7.05;5.53;;;;;;;13.09;88.47;95058.27;1697197;83;21010;-54
2022/06/27 03:05:16;;;;;;;10.32;6.05;;;;;;;13.00;88.12;95060.98;1685916;83;21014;-54
2022/06/27 03:07:45;;;;;;;7.67;5.50;;;;;;;12.91;88.36;95060.31;1685854;83;21241;-54
2022/06/27 03:10:14;;;;;;;10.75;6.40;;;;;;;12.89;88.56;95061.37;1709087;83;21034;-54
2022/06/27 03:12:44;;;;;;;9.38;6.08;;;;;;;12.88;89.12;95060.47;1709435;83;21090;-54
2022/06/27 03:15:12;;;;;;;8.38;6.28;;;;;;;12.89;88.96;95067.53;1709083;83;20968;-54
2022/06/27 03:17:40;;;;;;;11.83;5.90;;;;;;;12.87;88.78;95072.73;1685817;84;20967;-53
2022/06/27 03:20:17;;;;;;;9.03;6.08;;;;;;;12.85;88.74;95071.80;1653145;84;21862;-55
2022/06/27 03:22:52;;;;;;;15.15;6.30;;;;;;;12.86;89.16;95067.05;1674323;83;20963;-53
2022/06/27 03:25:19;;;;;;;9.65;6.50;;;;;;;12.90;89.20;95060.78;1685977;83;21006;-54
2022/06/27 03:27:48;;;;;;;16.77;6.53;;;;;;;12.96;89.16;95072.79;1673927;85;21055;-53
2022/06/27 03:30:16;;;;;;;16.27;6.47;;;;;;;13.02;89.22;95066.83;1685886;84;21498;-54
2022/06/27 03:32:44;;;;;;;7.78;5.65;;;;;;;13.13;88.93;95063.03;1685837;84;21554;-54
2022/06/27 03:35:13;;;;;;;10.82;5.53;;;;;;;13.22;88.58;95072.13;1708997;83;20987;-53
2022/06/27 03:37:42;;;;;;;11.28;8.53;;;;;;;13.27;88.40;95071.52;1685803;85;20963;-53
2022/06/27 03:40:11;;;;;;;10.18;6.85;;;;;;;13.30;88.24;95076.13;1685797;84;20975;-54
2022/06/27 03:42:41;;;;;;;11.55;6.90;;;;;;;13.33;88.04;95066.95;1727962;82;21423;-54
2022/06/27 03:45:10;;;;;;;10.13;7.70;;;;;;;13.39;88.15;95068.47;1685844;85;21867;-54
2022/06/27 03:47:49;;;;;;;7.55;6.55;;;;;;;13.48;88.02;95074.03;1686154;84;20952;-54
2022/06/27 03:50:33;;;;;;;9.47;5.87;;;;;;;13.58;88.17;95066.68;1686170;85;20963;-54
2022/06/27 03:53:00;;;;;;;7.47;6.10;;;;;;;13.79;87.96;95065.03;1685943;83;21113;-54
2022/06/27 03:55:30;;;;;;;7.85;6.60;;;;;;;13.88;87.22;95069.95;1686142;84;20955;-53
2022/06/27 03:57:59;;;;;;;10.25;6.20;;;;;;;13.95;87.15;95073.00;1686500;83;21133;-54
2022/06/27 04:00:33;;;;;;;10.88;6.15;;;;;;;14.05;86.73;95082.25;1685858;85;20987;-53
2022/06/27 04:03:02;;;;;;;9.00;5.45;;;;;;;14.15;86.31;95085.16;1728205;83;20932;-54
2022/06/27 04:05:34;;;;;;;7.72;6.25;;;;;;;14.27;86.16;95088.42;1727697;82;21046;-53
2022/06/27 04:08:02;;;;;;;7.03;5.72;;;;;;;14.39;86.10;95080.55;1685873;83;21066;-52
2022/06/27 04:10:33;;;;;;;7.33;5.70;;;;;;;14.51;85.84;95080.41;1685999;83;21451;-52
2022/06/27 04:13:01;;;;;;;8.25;7.15;;;;;;;14.60;85.38;95074.83;1685963;85;20999;-51
2022/06/27 04:15:30;;;;;;;5.90;5.33;;;;;;;14.69;85.45;95078.98;1725059;83;20952;-51
2022/06/27 04:18:17;;;;;;;5.65;5.10;;;;;;;14.80;84.86;95076.47;1685919;85;21062;-52
2022/06/27 04:21:00;;;;;;;6.95;5.10;;;;;;;14.88;84.12;95076.31;1685924;84;20966;-56
2022/06/27 04:23:30;;;;;;;14.83;6.42;;;;;;;14.95;83.94;95073.20;1666464;83;21130;-56
2022/06/27 04:26:17;;;;;;;8.43;5.70;;;;;;;15.00;83.60;95078.73;1730152;82;21362;-57
2022/06/27 04:28:46;;;;;;;9.48;4.83;;;;;;;15.02;83.21;95077.02;1687774;85;21015;-51
2022/06/27 04:31:14;;;;;;;14.38;6.15;;;;;;;15.01;82.80;95079.64;1675939;85;21047;-50
2022/06/27 04:33:44;;;;;;;7.78;5.33;;;;;;;15.00;82.68;95084.28;1687806;83;20967;-53
2022/06/27 04:36:12;;;;;;;7.37;5.45;;;;;;;15.03;82.80;95077.16;1687744;85;21249;-53
2022/06/27 04:38:40;;;;;;;9.28;6.08;;;;;;;15.07;82.35;95083.94;1687907;83;20955;-54
2022/06/27 04:41:28;;;;;;;6.78;5.80;;;;;;;15.10;82.56;95076.84;1687970;83;20970;-54
2022/06/27 04:43:56;;;;;;;7.67;6.10;;;;;;;15.21;82.41;95079.86;1687746;83;21490;-56
2022/06/27 04:46:27;;;;;;;14.65;9.85;;;;;;;15.27;81.81;95082.16;1687738;83;20995;-53
2022/06/27 04:48:57;;;;;;;15.03;7.78;;;;;;;15.28;81.62;95082.31;1688017;85;21280;-53
2022/06/27 04:51:24;;;;;;;16.27;7.65;;;;;;;15.35;81.48;95072.28;1675928;85;21078;-53
2022/06/27 04:53:53;;;;;;;14.63;9.25;;;;;;;15.46;81.01;95090.58;1676080;85;21066;-53
2022/06/27 04:56:21;;;;;;;16.77;9.50;;;;;;;15.52;80.66;95083.14;1688197;83;20954;-53
2022/06/27 04:58:48;;;;;;;17.15;9.65;;;;;;;15.52;80.50;95084.52;1687936;83;20971;-53
2022/06/27 05:01:17;;;;;;;17.77;8.65;;;;;;;15.57;80.58;95089.42;1688226;85;21491;-53
2022/06/27 05:03:50;;;;;;;14.98;8.73;;;;;;;15.66;80.23;95085.83;1688044;83;20948;-53
2022/06/27 05:06:25;;;;;;;19.27;9.28;;;;;;;15.72;79.81;95084.71;1686832;84;21534;-53
2022/06/27 05:08:54;;;;;;;19.30;10.18;;;;;;;15.72;79.67;95086.09;1687868;83;21597;-53
2022/06/27 05:11:23;;;;;;;14.70;9.38;;;;;;;15.75;79.70;95089.31;1676168;85;20966;-53
2022/06/27 05:13:51;;;;;;;17.70;9.33;;;;;;;15.83;79.34;95089.73;1687916;83;21194;-52
2022/06/27 05:16:38;;;;;;;17.92;9.48;;;;;;;15.83;79.01;95083.58;1687199;83;21023;-53
2022/06/27 05:19:06;;;;;;;20.65;8.90;;;;;;;15.84;79.25;95092.05;1688000;85;21023;-53
2022/06/27 05:21:34;;;;;;;23.77;9.93;;;;;;;15.94;79.11;95090.73;1688190;83;21037;-52
2022/06/27 05:24:03;;;;;;;17.17;9.73;;;;;;;15.99;78.96;95085.94;1687668;83;21116;-54
2022/06/27 05:26:31;;;;;;;17.55;9.20;;;;;;;16.05;78.95;95093.74;1703013;83;21763;-53
2022/06/27 05:29:01;;;;;;;29.95;9.80;;;;;;;16.12;78.85;95089.20;1727237;83;21397;-53
2022/06/27 05:31:29;;;;;;;21.33;8.13;;;;;;;16.23;78.63;95085.28;1726821;83;21003;-53
2022/06/27 05:33:57;;;;;;;18.05;8.75;;;;;;;16.31;78.17;95090.59;1724946;83;21495;-54
2022/06/27 05:36:25;;;;;;;17.10;8.13;;;;;;;16.37;78.03;95092.91;1724571;83;21007;-54
2022/06/27 05:38:55;;;;;;;16.85;8.58;;;;;;;16.41;77.62;95090.70;1719615;83;21236;-54
2022/06/27 05:41:22;;;;;;;18.27;9.28;;;;;;;16.44;77.53;95093.91;1725920;80;22290;-55
2022/06/27 05:43:52;;;;;;;26.55;10.38;;;;;;;16.49;77.47;95084.91;1726501;81;21024;-55
2022/06/27 05:46:21;;;;;;;14.20;7.25;;;;;;;16.59;77.43;95087.16;1706805;82;21071;-54
2022/06/27 05:49:03;;;;;;;13.72;7.22;;;;;;;16.70;76.95;95090.76;1711110;83;21066;-54
2022/06/27 05:51:33;;;;;;;14.28;8.53;;;;;;;16.81;76.56;95092.33;1715629;82;21466;-52
2022/06/27 05:54:01;;;;;;;15.25;8.43;;;;;;;16.91;76.26;95095.17;1727171;81;21093;-54
2022/06/27 05:56:30;;;;;;;25.77;7.28;;;;;;;16.95;75.90;95092.95;1720263;81;21096;-55
2022/06/27 05:58:58;;;;;;;12.35;7.25;;;;;;;17.01;75.76;95094.59;1714752;82;21403;-55
2022/06/27 06:01:27;;;;;;;11.15;7.00;;;;;;;17.09;75.56;95097.75;1692582;83;21108;-53
2022/06/27 06:03:56;;;;;;;20.30;6.97;;;;;;;17.17;75.40;95099.66;1692384;80;21830;-54
2022/06/27 06:06:25;;;;;;;16.17;7.90;;;;;;;17.30;75.12;95103.53;1715744;81;21012;-60
2022/06/27 06:08:54;;;;;;;19.32;7.87;;;;;;;17.40;74.66;95104.97;1724897;81;21023;-60
2022/06/27 06:11:21;;;;;;;20.15;8.03;;;;;;;17.46;74.26;95105.84;1685387;83;21204;-54
2022/06/27 06:13:49;;;;;;;16.27;9.35;;;;;;;17.48;73.98;95108.26;1720926;82;21091;-55
2022/06/27 06:16:19;;;;;;;18.62;9.13;;;;;;;17.49;73.79;95110.44;1719127;83;21108;-57
2022/06/27 06:18:53;;;;;;;24.92;8.48;;;;;;;17.57;73.62;95104.59;1721555;81;21562;-57
2022/06/27 06:21:22;;;;;;;15.75;7.80;;;;;;;17.67;73.39;95111.59;1700770;81;21005;-56
2022/06/27 06:23:51;;;;;;;20.10;6.70;;;;;;;17.77;73.00;95106.03;1721463;81;21420;-55
2022/06/27 06:26:19;;;;;;;21.70;7.50;;;;;;;17.79;72.44;95109.87;1719480;81;20987;-56
2022/06/27 06:28:49;;;;;;;19.70;7.45;;;;;;;17.82;72.36;95108.14;1710031;83;21877;-55
2022/06/27 06:31:24;;;;;;;18.80;7.37;;;;;;;17.84;72.12;95102.85;1709105;81;21026;-54
2022/06/27 06:33:57;;;;;;;15.18;6.00;;;;;;;17.95;72.42;95100.98;1696626;82;21053;-55
2022/06/27 06:36:27;;;;;;;15.95;7.22;;;;;;;18.18;71.98;95109.76;1714255;82;21075;-56
2022/06/27 06:38:57;;;;;;;22.55;7.17;;;;;;;18.35;71.30;95105.97;1708515;81;21080;-55
2022/06/27 06:41:25;;;;;;;19.15;7.35;;;;;;;18.53;70.60;95104.90;1713663;82;21884;-56
2022/06/27 06:43:53;;;;;;;15.90;6.85;;;;;;;18.69;69.80;95106.48;1721554;81;20974;-53
2022/06/27 06:46:22;;;;;;;15.95;5.85;;;;;;;18.80;69.21;95104.45;1693788;80;21077;-54
2022/06/27 06:48:57;;;;;;;12.85;7.05;;;;;;;18.91;68.80;95106.71;1740140;80;22961;-55
2022/06/27 06:51:25;;;;;;;12.68;9.15;;;;;;;19.03;68.46;95099.97;1728726;80;20975;-54
2022/06/27 06:53:53;;;;;;;14.68;8.00;;;;;;;19.19;68.36;95100.78;1750935;80;21224;-53
2022/06/27 06:56:22;;;;;;;21.75;11.18;;;;;;;19.30;67.86;95104.29;1718047;81;21576;-56
2022/06/27 06:58:50;;;;;;;12.93;6.28;;;;;;;19.44;67.72;95101.39;1715707;82;21057;-58
2022/06/27 07:01:20;;;;;;;17.37;6.87;;;;;;;19.51;67.09;95100.14;1714992;81;21006;-52
2022/06/27 07:03:49;;;;;;;18.98;6.60;;;;;;;19.51;67.10;95099.52;1714585;81;21099;-53
2022/06/27 07:06:17;;;;;;;18.42;7.20;;;;;;;19.54;67.17;95102.71;1710965;81;22263;-57
2022/06/27 07:08:46;;;;;;;14.58;7.17;;;;;;;19.64;67.27;95101.28;1714202;81;20890;-56
2022/06/27 07:11:14;;;;;;;9.20;6.45;;;;;;;19.82;66.80;95102.28;1682310;83;21756;-54
2022/06/27 07:13:42;;;;;;;13.43;6.47;;;;;;;19.96;66.13;95100.58;1748367;80;22331;-53
2022/06/27 07:16:10;;;;;;;13.68;7.25;;;;;;;20.03;65.81;95107.90;1749731;81;21002;-55
2022/06/27 07:18:38;;;;;;;14.50;6.55;;;;;;;20.11;65.76;95098.42;1750724;80;21241;-56
2022/06/27 07:21:08;;;;;;;13.83;7.05;;;;;;;20.13;65.03;95103.00;1728458;81;20911;-56
2022/06/27 07:23:36;;;;;;;21.77;7.35;;;;;;;20.19;65.10;95102.39;1719367;81;21025;-53
2022/06/27 07:26:05;;;;;;;16.37;7.50;;;;;;;20.28;65.29;95091.63;1748710;81;21655;-57
2022/06/27 07:28:34;;;;;;;12.70;7.65;;;;;;;20.43;64.52;95096.40;1741127;80;21603;-58
2022/06/27 07:31:08;;;;;;;12.68;7.20;;;;;;;20.58;64.13;95090.73;1752297;80;21157;-53
2022/06/27 07:33:32;;;;;;;19.65;8.73;;;;;;;20.79;63.86;95089.91;1748828;80;21005;-53
2022/06/27 07:36:02;;;;;;;15.38;7.28;;;;;;;21.02;63.46;95094.30;1749577;81;20993;-55
2022/06/27 07:38:32;;;;;;;13.95;7.40;;;;;;;21.18;62.69;95095.73;1750633;80;21025;-54
2022/06/27 07:41:01;;;;;;;12.20;6.72;;;;;;;21.28;62.45;95092.05;1752602;80;20980;-54
2022/06/27 07:43:29;;;;;;;11.65;7.00;;;;;;;21.41;62.49;95094.47;1719904;81;21235;-53
2022/06/27 07:45:57;;;;;;;17.17;7.12;;;;;;;21.50;62.23;95089.25;1749297;80;20977;-54
2022/06/27 07:48:25;;;;;;;10.78;6.45;;;;;;;21.67;61.54;95090.03;1718558;81;21245;-53
2022/06/27 07:50:55;;;;;;;10.53;5.65;;;;;;;21.79;60.83;95088.73;1722847;81;21155;-54
2022/06/27 07:53:23;;;;;;;11.93;6.78;;;;;;;21.86;60.40;95086.83;1750728;80;21694;-55
2022/06/27 07:55:59;;;;;;;17.35;6.87;;;;;;;21.97;60.33;95086.79;1730881;80;21158;-54
2022/06/27 07:58:35;;;;;;;9.25;5.95;;;;;;;22.09;60.01;95084.22;1753688;81;21120;-53
2022/06/27 08:01:06;;;;;;;10.00;5.17;;;;;;;22.29;59.36;95083.90;1747429;80;20953;-61
2022/06/27 08:03:36;;;;;;;7.60;5.35;;;;;;;22.45;58.56;95079.55;1747016;80;21041;-57
2022/06/27 08:06:28;;;;;;;9.80;5.17;;;;;;;22.64;57.96;95079.83;1753702;80;21039;-58
2022/06/27 08:08:59;;;;;;;8.78;4.60;;;;;;;22.86;57.87;95078.30;1745786;80;21146;-56
2022/06/27 08:11:29;;;;;;;7.15;5.10;;;;;;;23.10;56.58;95084.05;1721238;81;22162;-56
2022/06/27 08:14:05;;;;;;;9.10;4.93;;;;;;;23.25;55.80;95081.67;1752293;80;21473;-58
2022/06/27 08:16:30;;;;;;;9.10;4.65;;;;;;;23.37;55.50;95081.70;1721383;81;21140;-59
2022/06/27 08:18:58;;;;;;;8.63;4.72;;;;;;;23.47;54.97;95078.69;1750757;80;21096;-58
2022/06/27 08:21:27;;;;;;;5.83;3.95;;;;;;;23.54;54.45;95085.13;1752400;80;22244;-57
2022/06/27 08:23:58;;;;;;;4.72;4.00;;;;;;;23.69;53.99;95082.71;1751447;80;21028;-59
2022/06/27 08:26:26;;;;;;;4.85;3.55;;;;;;;23.81;53.74;95086.95;1748718;80;22145;-59
2022/06/27 08:28:54;;;;;;;4.28;3.83;;;;;;;23.92;53.27;95078.43;1682044;83;21033;-60
2022/06/27 08:31:22;;;;;;;12.55;4.20;;;;;;;24.10;53.08;95081.95;1692428;83;21042;-58
2022/06/27 08:33:52;;;;;;;5.05;4.30;;;;;;;24.27;53.06;95075.51;1689925;83;21593;-59
2022/06/27 08:36:23;;;;;;;5.35;3.75;;;;;;;24.43;52.74;95073.15;1688568;83;21041;-61
2022/06/27 08:38:52;;;;;;;5.87;4.17;;;;;;;24.56;52.64;95070.47;1678906;83;21130;-58
2022/06/27 08:41:22;;;;;;;10.78;3.90;;;;;;;24.73;52.77;95072.43;1667017;83;21217;-58
2022/06/27 08:43:55;;;;;;;6.40;3.37;;;;;;;24.90;51.74;95064.52;1725590;81;21054;-60
2022/06/27 08:46:23;;;;;;;6.45;3.72;;;;;;;25.02;52.13;95060.23;1722535;81;21114;-58
2022/06/27 08:48:52;;;;;;;11.15;4.58;;;;;;;25.11;52.28;95064.09;1681086;83;21011;-59
2022/06/27 08:51:19;;;;;;;6.10;4.10;;;;;;;25.19;51.73;95056.56;1664797;83;21085;-63
2022/06/27 08:53:47;;;;;;;4.08;3.15;;;;;;;25.32;52.16;95055.22;1703041;83;21045;-64
2022/06/27 08:56:14;;;;;;;6.90;3.95;;;;;;;25.51;51.86;95046.07;1673736;83;21113;-63
2022/06/27 08:58:46;;;;;;;5.58;3.90;;;;;;;25.67;51.84;95049.27;1687835;83;21755;-63
2022/06/27 09:01:13;;;;;;;4.70;3.40;;;;;;;25.81;51.99;95053.64;1641092;84;21604;-64
2022/06/27 09:03:58;;;;;;;4.20;3.35;;;;;;;25.92;50.85;95049.22;1640450;83;21415;-64
2022/06/27 09:06:23;;;;;;;5.45;3.17;;;;;;;26.05;51.49;95047.17;1687467;83;21054;-68
2022/06/27 09:09:03;;;;;;;8.23;3.95;;;;;;;26.21;50.25;95052.52;1696144;83;21326;-65
2022/06/27 09:11:28;;;;;;;11.05;3.77;;;;;;;26.33;50.51;95054.47;1686572;83;21325;-67
2022/06/27 09:13:56;;;;;;;9.13;3.25;;;;;;;26.52;49.90;95049.50;1688759;83;21053;-59
2022/06/27 09:16:23;;;;;;;6.35;3.47;;;;;;;26.65;49.47;95055.88;1685033;83;21070;-60
2022/06/27 09:18:51;;;;;;;5.58;2.90;;;;;;;26.75;48.51;95055.55;1683829;83;21046;-59
2022/06/27 09:21:18;;;;;;;3.90;2.87;;;;;;;26.79;48.30;95050.33;1683678;84;21042;-59
2022/06/27 09:23:54;;;;;;;16.90;4.20;;;;;;;26.80;48.39;95045.42;1728226;81;21425;-57
2022/06/27 09:26:35;;;;;;;4.85;2.92;;;;;;;26.75;48.16;95047.72;1684298;83;21054;-58
2022/06/27 09:29:09;;;;;;;6.45;3.22;;;;;;;26.61;48.18;95045.58;1715095;82;21101;-57
2022/06/27 09:31:42;;;;;;;3.37;2.50;;;;;;;26.44;48.22;95045.77;1721568;81;21625;-58
2022/06/27 09:34:23;;;;;;;5.00;3.30;;;;;;;26.22;48.30;95052.63;1696762;82;21074;-58
2022/06/27 09:36:59;;;;;;;7.00;3.37;;;;;;;26.05;49.02;95046.53;1716138;81;21280;-60
2022/06/27 09:39:39;;;;;;;5.50;3.02;;;;;;;25.93;49.54;95043.80;1718279;81;21073;-57
2022/06/27 09:42:16;;;;;;;5.87;3.30;;;;;;;25.84;49.88;95048.33;1721178;81;21452;-56
2022/06/27 09:44:44;;;;;;;4.87;2.87;;;;;;;25.77;50.61;95044.72;1716183;82;21163;-54
2022/06/27 09:47:20;;;;;;;4.85;2.87;;;;;;;25.74;50.48;95038.75;1723551;81;21073;-55
2022/06/27 09:49:50;;;;;;;6.65;3.22;;;;;;;25.74;50.93;95045.80;1716407;83;21088;-52
2022/06/27 09:52:23;;;;;;;4.08;2.80;;;;;;;25.70;50.77;95039.72;1716849;81;21083;-53
2022/06/27 09:54:53;;;;;;;3.52;2.72;;;;;;;25.70;50.45;95038.31;1680024;83;22037;-54
2022/06/27 09:57:21;;;;;;;5.92;3.00;;;;;;;25.77;51.12;95037.66;1697855;83;21123;-52
2022/06/27 09:59:50;;;;;;;3.40;2.95;;;;;;;25.93;51.42;95033.19;1667985;84;22349;-52
2022/06/27 10:02:19;;;;;;;4.65;3.17;;;;;;;26.15;50.68;95036.99;1712750;82;21111;-59
2022/06/27 10:04:47;;;;;;;3.67;3.10;;;;;;;26.27;50.46;95034.08;1721401;82;21033;-54
2022/06/27 10:07:16;;;;;;;4.10;2.87;;;;;;;26.33;49.68;95041.77;1712011;82;21057;-54
2022/06/27 10:09:45;;;;;;;3.52;2.80;;;;;;;26.39;49.53;95037.54;1712724;82;21052;-54
2022/06/27 10:12:37;;;;;;;3.65;2.98;;;;;;;26.49;49.33;95030.16;1696621;82;21464;-54
2022/06/27 10:15:16;;;;;;;6.53;3.25;;;;;;;26.69;50.37;95026.66;1702093;82;21152;-56
2022/06/27 10:17:50;;;;;;;4.55;3.75;;;;;;;26.90;48.48;95023.27;1712320;82;21081;-53
2022/06/27 10:20:29;;;;;;;6.75;2.77;;;;;;;27.05;48.37;95027.66;1714039;82;21115;-54
2022/06/27 10:23:23;;;;;;;5.78;2.83;;;;;;;27.16;48.72;95023.20;1688120;83;21057;-53
2022/06/27 10:25:50;;;;;;;4.87;2.92;;;;;;;27.30;48.25;95019.66;1724816;82;21081;-54
2022/06/27 10:28:20;;;;;;;3.85;2.92;;;;;;;27.36;47.65;95026.70;1691272;83;21126;-54
2022/06/27 10:30:58;;;;;;;4.37;2.98;;;;;;;27.39;47.84;95029.84;1708728;83;21001;-55
2022/06/27 10:33:31;;;;;;;6.70;2.60;;;;;;;27.36;47.14;95028.78;1714093;82;21079;-55
2022/06/27 10:36:03;;;;;;;5.37;3.10;;;;;;;27.24;47.92;95021.88;1717104;83;21536;-54
2022/06/27 10:38:42;;;;;;;5.12;3.08;;;;;;;27.27;48.37;95022.95;1720294;83;21049;-52
2022/06/27 10:41:23;;;;;;;4.40;2.70;;;;;;;27.36;48.08;95016.81;1719379;83;21276;-55
2022/06/27 10:43:54;;;;;;;3.23;2.80;;;;;;;27.46;47.43;95026.34;1691967;83;21396;-54
2022/06/27 10:46:30;;;;;;;6.08;5.10;;;;;;;27.66;46.57;95017.10;1710368;82;21548;-55
2022/06/27 10:48:59;;;;;;;4.35;3.85;;;;;;;27.87;45.83;95019.92;1715974;83;21040;-55
2022/06/27 10:51:34;;;;;;;3.60;2.90;;;;;;;28.25;46.12;95014.64;1685341;83;21022;-53
2022/06/27 10:54:10;;;;;;;4.55;2.67;;;;;;;28.68;45.72;95009.82;1717446;83;21243;-53
2022/06/27 10:56:47;;;;;;;10.13;7.40;;;;;;;29.08;44.92;95007.34;1709822;82;21015;-54
2022/06/27 10:59:20;;;;;;;6.33;2.62;;;;;;;29.40;44.81;95006.19;1694052;83;21014;-54
2022/06/27 11:02:00;;;;;;;3.33;2.80;;;;;;;29.57;43.27;94997.28;1703435;83;20999;-53
2022/06/27 11:04:36;;;;;;;4.65;3.00;;;;;;;29.90;42.96;94994.06;1679515;83;21017;-53
2022/06/27 11:07:08;;;;;;;4.40;2.90;;;;;;;29.72;42.48;94995.11;1698665;83;21037;-53
2022/06/27 11:09:43;;;;;;;6.42;2.47;;;;;;;29.63;42.03;94989.98;1694413;83;21394;-54
2022/06/27 11:12:12;;;;;;;4.62;2.50;;;;;;;29.68;41.81;94997.56;1718055;82;20997;-54
2022/06/27 11:14:48;;;;;;;4.75;2.77;;;;;;;29.88;42.12;94991.03;1712625;83;21066;-56
2022/06/27 11:17:41;;;;;;;10.60;2.70;;;;;;;30.44;40.83;94990.60;1719680;82;21029;-58
2022/06/27 11:20:24;;;;;;;3.77;2.60;;;;;;;30.54;39.36;94986.50;1717411;82;21742;-59
2022/06/27 11:22:53;;;;;;;;;;;;;;;30.34;40.23;94995.34;1728246;82;21102;-62
2022/06/27 11:25:22;;;;;;;4.47;2.47;;;;;;;30.26;39.16;94991.78;1703819;83;20291;-61
2022/06/27 11:27:54;;;;;;;6.87;3.00;;;;;;;30.28;38.57;94994.06;1677942;84;21100;-62
2022/06/27 11:33:25;;;;;;;4.12;2.25;;;;;;;30.05;39.17;94996.16;1710363;82;21166;-57
2022/06/27 11:35:54;;;;;;;8.55;2.67;;;;;;;29.78;38.19;94990.76;1687630;83;21285;-57
2022/06/27 11:38:43;;;;;;;5.62;2.52;;;;;;;29.32;39.30;95000.50;1687615;83;20978;-59
2022/06/27 11:41:16;;;;;;;2.77;2.50;;;;;;;29.12;39.61;94996.41;1682579;83;21468;-57
2022/06/27 11:43:53;;;;;;;4.33;2.95;;;;;;;29.14;40.37;94990.93;1677165;84;21069;-57
2022/06/27 11:46:27;;;;;;;3.55;2.70;;;;;;;29.65;40.11;94990.19;1673008;84;21248;-58
2022/06/27 11:49:02;;;;;;;3.52;2.40;;;;;;;30.28;39.52;94992.64;1686823;83;21011;-57